sensor_id;sensor_type;location;lat;lon;timestamp;temperature;humidity
13596;DHT22;6868;52.544;13.416;2022-07-18T00:02:14;19.00;99.90
13596;DHT22;6868;52.544;13.416;2022-07-18T00:04:41;18.90;99.90
13596;DHT22;6868;52.544;13.416;2022-07-18T00:07:08;18.90;99.90
13596;DHT22;6868;52.544;13.416;2022-07-18T00:09:37;18.90;99.90
13596;DHT22;6868;52.544;13.416;2022-07-18T00:12:04;18.90;99.90
13596;DHT22;6868;52.544;13.416;2022-07-18T00:14:31;18.90;99.90
13596;DHT22;6868;52.544;13.416;2022-07-18T00:16:58;18.90;99.90
13596;DHT22;6868;52.544;13.416;2022-07-18T00:19:25;18.90;99.90
13596;DHT22;6868;52.544;13.416;2022-07-18T00:21:52;18.90;99.90
13596;DHT22;6868;52.544;13.416;2022-07-18T00:24:19;18.90;99.90
13596;DHT22;6868;52.544;13.416;2022-07-18T00:26:47;18.80;99.90
13596;DHT22;6868;52.544;13.416;2022-07-18T00:29:14;18.90;99.90
13596;DHT22;6868;52.544;13.416;2022-07-18T00:31:41;18.80;99.90
13596;DHT22;6868;52.544;13.416;2022-07-18T00:34:07;18.80;99.90
13596;DHT22;6868;52.544;13.416;2022-07-18T00:36:34;18.80;99.90
13596;DHT22;6868;52.544;13.416;2022-07-18T00:39:01;18.80;99.90
13596;DHT22;6868;52.544;13.416;2022-07-18T00:41:27;18.70;99.90
13596;DHT22;6868;52.544;13.416;2022-07-18T00:43:56;18.70;99.90
13596;DHT22;6868;52.544;13.416;2022-07-18T00:46:23;18.70;99.90
13596;DHT22;6868;52.544;13.416;2022-07-18T00:48:51;18.60;99.90
13596;DHT22;6868;52.544;13.416;2022-07-18T00:51:18;18.60;99.90
13596;DHT22;6868;52.544;13.416;2022-07-18T00:53:45;18.60;99.90
13596;DHT22;6868;52.544;13.416;2022-07-18T00:56:12;18.50;99.90
13596;DHT22;6868;52.544;13.416;2022-07-18T00:58:39;18.60;99.90
13596;DHT22;6868;52.544;13.416;2022-07-18T01:01:08;18.50;99.90
13596;DHT22;6868;52.544;13.416;2022-07-18T01:03:52;18.40;99.90
13596;DHT22;6868;52.544;13.416;2022-07-18T01:06:21;18.40;99.90
13596;DHT22;6868;52.544;13.416;2022-07-18T01:08:48;18.40;99.90
13596;DHT22;6868;52.544;13.416;2022-07-18T01:11:16;18.40;99.90
13596;DHT22;6868;52.544;13.416;2022-07-18T01:13:42;18.30;99.90
13596;DHT22;6868;52.544;13.416;2022-07-18T01:16:11;18.30;99.90
13596;DHT22;6868;52.544;13.416;2022-07-18T01:18:43;18.30;99.90
13596;DHT22;6868;52.544;13.416;2022-07-18T01:21:11;18.20;99.90
13596;DHT22;6868;52.544;13.416;2022-07-18T01:23:38;18.20;99.90
13596;DHT22;6868;52.544;13.416;2022-07-18T01:26:05;18.20;99.90
13596;DHT22;6868;52.544;13.416;2022-07-18T01:30:58;18.10;99.90
13596;DHT22;6868;52.544;13.416;2022-07-18T01:33:25;18.00;99.90
13596;DHT22;6868;52.544;13.416;2022-07-18T01:35:52;18.00;99.90
13596;DHT22;6868;52.544;13.416;2022-07-18T01:38:21;17.90;99.90
13596;DHT22;6868;52.544;13.416;2022-07-18T01:40:47;17.90;99.90
13596;DHT22;6868;52.544;13.416;2022-07-18T01:43:15;17.90;99.90
13596;DHT22;6868;52.544;13.416;2022-07-18T01:45:42;17.80;99.90
13596;DHT22;6868;52.544;13.416;2022-07-18T01:48:09;17.80;99.90
13596;DHT22;6868;52.544;13.416;2022-07-18T01:50:36;17.70;99.90
13596;DHT22;6868;52.544;13.416;2022-07-18T01:53:02;17.70;99.90
13596;DHT22;6868;52.544;13.416;2022-07-18T01:55:31;17.60;99.90
13596;DHT22;6868;52.544;13.416;2022-07-18T01:57:59;17.60;99.90
13596;DHT22;6868;52.544;13.416;2022-07-18T02:00:25;17.50;99.90
13596;DHT22;6868;52.544;13.416;2022-07-18T02:02:52;17.50;99.90
13596;DHT22;6868;52.544;13.416;2022-07-18T02:05:19;17.40;99.90
13596;DHT22;6868;52.544;13.416;2022-07-18T02:07:46;17.30;99.90
13596;DHT22;6868;52.544;13.416;2022-07-18T02:10:15;17.30;99.90
13596;DHT22;6868;52.544;13.416;2022-07-18T02:12:44;17.30;99.90
13596;DHT22;6868;52.544;13.416;2022-07-18T02:15:11;17.30;99.90
13596;DHT22;6868;52.544;13.416;2022-07-18T02:17:38;17.20;99.90
13596;DHT22;6868;52.544;13.416;2022-07-18T02:20:05;17.20;99.90
13596;DHT22;6868;52.544;13.416;2022-07-18T02:22:35;17.50;99.90
13596;DHT22;6868;52.544;13.416;2022-07-18T02:25:02;17.00;99.90
13596;DHT22;6868;52.544;13.416;2022-07-18T02:27:29;17.20;99.90
13596;DHT22;6868;52.544;13.416;2022-07-18T02:29:57;16.80;99.90
13596;DHT22;6868;52.544;13.416;2022-07-18T02:32:26;17.10;99.90
13596;DHT22;6868;52.544;13.416;2022-07-18T02:34:53;17.20;99.90
13596;DHT22;6868;52.544;13.416;2022-07-18T02:37:20;17.10;99.90
13596;DHT22;6868;52.544;13.416;2022-07-18T02:39:46;17.10;99.90
13596;DHT22;6868;52.544;13.416;2022-07-18T02:42:13;17.00;99.90
13596;DHT22;6868;52.544;13.416;2022-07-18T02:44:40;17.10;99.90
13596;DHT22;6868;52.544;13.416;2022-07-18T02:47:08;17.00;99.90
13596;DHT22;6868;52.544;13.416;2022-07-18T02:49:35;16.60;99.90
13596;DHT22;6868;52.544;13.416;2022-07-18T02:52:05;16.90;99.90
13596;DHT22;6868;52.544;13.416;2022-07-18T02:54:32;16.80;99.90
13596;DHT22;6868;52.544;13.416;2022-07-18T02:56:59;16.90;99.90
13596;DHT22;6868;52.544;13.416;2022-07-18T02:59:27;16.80;99.90
13596;DHT22;6868;52.544;13.416;2022-07-18T03:01:54;16.90;99.90
13596;DHT22;6868;52.544;13.416;2022-07-18T03:04:22;16.80;99.90
13596;DHT22;6868;52.544;13.416;2022-07-18T03:06:49;16.80;99.90
13596;DHT22;6868;52.544;13.416;2022-07-18T03:09:16;16.80;99.90
13596;DHT22;6868;52.544;13.416;2022-07-18T03:11:43;16.70;99.90
13596;DHT22;6868;52.544;13.416;2022-07-18T03:14:11;16.70;99.90
13596;DHT22;6868;52.544;13.416;2022-07-18T03:16:38;16.70;99.90
13596;DHT22;6868;52.544;13.416;2022-07-18T03:19:04;16.70;99.90
13596;DHT22;6868;52.544;13.416;2022-07-18T03:21:33;16.80;99.90
13596;DHT22;6868;52.544;13.416;2022-07-18T03:23:59;16.90;99.90
13596;DHT22;6868;52.544;13.416;2022-07-18T03:26:26;16.80;99.90
13596;DHT22;6868;52.544;13.416;2022-07-18T03:28:53;16.80;99.90
13596;DHT22;6868;52.544;13.416;2022-07-18T03:31:20;16.80;99.90
13596;DHT22;6868;52.544;13.416;2022-07-18T03:33:47;16.80;99.90
13596;DHT22;6868;52.544;13.416;2022-07-18T03:36:13;16.90;99.90
13596;DHT22;6868;52.544;13.416;2022-07-18T03:38:41;16.90;99.90
13596;DHT22;6868;52.544;13.416;2022-07-18T03:41:09;16.90;99.90
13596;DHT22;6868;52.544;13.416;2022-07-18T03:43:37;17.00;99.90
13596;DHT22;6868;52.544;13.416;2022-07-18T03:46:04;17.00;99.90
13596;DHT22;6868;52.544;13.416;2022-07-18T03:48:34;17.00;99.90
13596;DHT22;6868;52.544;13.416;2022-07-18T03:51:01;17.00;99.90
13596;DHT22;6868;52.544;13.416;2022-07-18T03:53:28;17.00;99.90
13596;DHT22;6868;52.544;13.416;2022-07-18T03:55:56;17.00;99.90
13596;DHT22;6868;52.544;13.416;2022-07-18T03:58:23;17.10;99.90
13596;DHT22;6868;52.544;13.416;2022-07-18T04:00:50;17.10;99.90
13596;DHT22;6868;52.544;13.416;2022-07-18T04:03:17;17.10;99.90
13596;DHT22;6868;52.544;13.416;2022-07-18T04:05:44;17.20;99.90
13596;DHT22;6868;52.544;13.416;2022-07-18T04:08:11;17.20;99.90
13596;DHT22;6868;52.544;13.416;2022-07-18T04:10:38;17.20;99.90
13596;DHT22;6868;52.544;13.416;2022-07-18T04:13:07;17.20;99.90
13596;DHT22;6868;52.544;13.416;2022-07-18T04:15:33;17.20;99.90
13596;DHT22;6868;52.544;13.416;2022-07-18T04:18:00;17.20;99.90
13596;DHT22;6868;52.544;13.416;2022-07-18T04:22:55;17.20;99.90
13596;DHT22;6868;52.544;13.416;2022-07-18T04:25:24;17.20;99.90
13596;DHT22;6868;52.544;13.416;2022-07-18T04:27:54;17.30;99.90
13596;DHT22;6868;52.544;13.416;2022-07-18T04:30:23;17.30;99.90
13596;DHT22;6868;52.544;13.416;2022-07-18T04:32:50;17.30;99.90
13596;DHT22;6868;52.544;13.416;2022-07-18T04:35:18;17.40;99.90
13596;DHT22;6868;52.544;13.416;2022-07-18T04:37:45;17.50;99.90
13596;DHT22;6868;52.544;13.416;2022-07-18T04:40:15;17.50;99.90
13596;DHT22;6868;52.544;13.416;2022-07-18T04:42:52;17.60;99.90
13596;DHT22;6868;52.544;13.416;2022-07-18T04:45:19;17.60;99.90
13596;DHT22;6868;52.544;13.416;2022-07-18T04:47:50;17.60;99.90
13596;DHT22;6868;52.544;13.416;2022-07-18T04:50:17;17.70;99.90
13596;DHT22;6868;52.544;13.416;2022-07-18T04:52:45;18.00;99.90
13596;DHT22;6868;52.544;13.416;2022-07-18T04:55:12;18.50;99.90
13596;DHT22;6868;52.544;13.416;2022-07-18T04:57:40;19.20;99.90
13596;DHT22;6868;52.544;13.416;2022-07-18T05:00:08;19.60;99.90
13596;DHT22;6868;52.544;13.416;2022-07-18T05:02:36;20.00;99.90
13596;DHT22;6868;52.544;13.416;2022-07-18T05:05:09;20.50;99.90
13596;DHT22;6868;52.544;13.416;2022-07-18T05:07:36;20.70;99.90
13596;DHT22;6868;52.544;13.416;2022-07-18T05:10:05;20.90;99.90
13596;DHT22;6868;52.544;13.416;2022-07-18T05:12:36;21.30;99.90
13596;DHT22;6868;52.544;13.416;2022-07-18T05:15:04;21.20;99.90
13596;DHT22;6868;52.544;13.416;2022-07-18T05:17:31;21.20;99.90
13596;DHT22;6868;52.544;13.416;2022-07-18T05:19:58;21.20;99.90
13596;DHT22;6868;52.544;13.416;2022-07-18T05:22:26;21.40;99.90
13596;DHT22;6868;52.544;13.416;2022-07-18T05:24:53;21.60;99.90
13596;DHT22;6868;52.544;13.416;2022-07-18T05:27:20;21.50;99.90
13596;DHT22;6868;52.544;13.416;2022-07-18T05:29:46;23.10;99.90
13596;DHT22;6868;52.544;13.416;2022-07-18T05:32:13;21.50;99.90
13596;DHT22;6868;52.544;13.416;2022-07-18T05:34:40;21.50;99.90
13596;DHT22;6868;52.544;13.416;2022-07-18T05:37:06;21.50;99.90
13596;DHT22;6868;52.544;13.416;2022-07-18T05:39:35;21.60;99.90
13596;DHT22;6868;52.544;13.416;2022-07-18T05:42:01;22.20;99.90
13596;DHT22;6868;52.544;13.416;2022-07-18T05:44:28;21.90;99.90
13596;DHT22;6868;52.544;13.416;2022-07-18T05:46:55;21.90;99.90
13596;DHT22;6868;52.544;13.416;2022-07-18T05:49:22;22.10;99.90
13596;DHT22;6868;52.544;13.416;2022-07-18T05:51:48;22.10;99.90
13596;DHT22;6868;52.544;13.416;2022-07-18T05:54:17;22.30;99.90
13596;DHT22;6868;52.544;13.416;2022-07-18T05:56:47;22.70;99.90
13596;DHT22;6868;52.544;13.416;2022-07-18T05:59:14;23.00;99.90
13596;DHT22;6868;52.544;13.416;2022-07-18T06:01:41;23.00;99.90
13596;DHT22;6868;52.544;13.416;2022-07-18T06:04:08;22.90;99.90
13596;DHT22;6868;52.544;13.416;2022-07-18T06:06:35;22.90;99.90
13596;DHT22;6868;52.544;13.416;2022-07-18T06:09:04;23.00;99.90
13596;DHT22;6868;52.544;13.416;2022-07-18T06:11:31;23.40;99.90
13596;DHT22;6868;52.544;13.416;2022-07-18T06:13:59;23.40;99.90
13596;DHT22;6868;52.544;13.416;2022-07-18T06:16:28;23.30;99.90
13596;DHT22;6868;52.544;13.416;2022-07-18T06:18:54;23.40;99.90
13596;DHT22;6868;52.544;13.416;2022-07-18T06:21:21;24.00;99.90
13596;DHT22;6868;52.544;13.416;2022-07-18T06:23:49;24.20;99.90
13596;DHT22;6868;52.544;13.416;2022-07-18T06:26:16;24.60;99.90
13596;DHT22;6868;52.544;13.416;2022-07-18T06:28:42;24.50;99.90
13596;DHT22;6868;52.544;13.416;2022-07-18T06:31:11;24.70;99.90
13596;DHT22;6868;52.544;13.416;2022-07-18T06:33:41;25.50;99.90
13596;DHT22;6868;52.544;13.416;2022-07-18T06:36:08;25.70;99.90
13596;DHT22;6868;52.544;13.416;2022-07-18T06:38:37;26.40;99.90
13596;DHT22;6868;52.544;13.416;2022-07-18T06:41:04;27.10;99.90
13596;DHT22;6868;52.544;13.416;2022-07-18T06:45:57;27.90;96.10
13596;DHT22;6868;52.544;13.416;2022-07-18T06:48:26;27.80;96.40
13596;DHT22;6868;52.544;13.416;2022-07-18T06:50:58;27.80;93.70
13596;DHT22;6868;52.544;13.416;2022-07-18T06:53:25;27.90;92.50
13596;DHT22;6868;52.544;13.416;2022-07-18T06:55:52;27.80;91.80
13596;DHT22;6868;52.544;13.416;2022-07-18T06:58:19;27.90;91.70
13596;DHT22;6868;52.544;13.416;2022-07-18T07:00:46;28.30;87.30
13596;DHT22;6868;52.544;13.416;2022-07-18T07:03:14;28.10;85.00
13596;DHT22;6868;52.544;13.416;2022-07-18T07:05:43;27.90;83.70
13596;DHT22;6868;52.544;13.416;2022-07-18T07:08:10;28.20;83.20
13596;DHT22;6868;52.544;13.416;2022-07-18T07:10:37;28.30;83.40
13596;DHT22;6868;52.544;13.416;2022-07-18T07:13:04;28.20;79.20
13596;DHT22;6868;52.544;13.416;2022-07-18T07:15:31;28.80;76.70
13596;DHT22;6868;52.544;13.416;2022-07-18T07:17:58;29.20;69.00
13596;DHT22;6868;52.544;13.416;2022-07-18T07:20:25;29.20;69.00
13596;DHT22;6868;52.544;13.416;2022-07-18T07:22:54;29.50;67.10
13596;DHT22;6868;52.544;13.416;2022-07-18T07:25:23;29.90;66.90
13596;DHT22;6868;52.544;13.416;2022-07-18T07:27:51;29.70;63.10
13596;DHT22;6868;52.544;13.416;2022-07-18T07:30:18;29.30;59.70
13596;DHT22;6868;52.544;13.416;2022-07-18T07:32:45;29.50;56.80
13596;DHT22;6868;52.544;13.416;2022-07-18T07:37:40;29.30;59.10
13596;DHT22;6868;52.544;13.416;2022-07-18T07:40:09;30.40;54.20
13596;DHT22;6868;52.544;13.416;2022-07-18T07:42:36;30.40;54.10
13596;DHT22;6868;52.544;13.416;2022-07-18T07:45:03;30.90;52.60
13596;DHT22;6868;52.544;13.416;2022-07-18T07:49:59;31.20;48.20
13596;DHT22;6868;52.544;13.416;2022-07-18T07:54:53;31.00;46.60
13596;DHT22;6868;52.544;13.416;2022-07-18T07:57:22;30.40;48.50
13596;DHT22;6868;52.544;13.416;2022-07-18T07:59:49;30.10;48.40
13596;DHT22;6868;52.544;13.416;2022-07-18T08:02:16;29.60;48.10
13596;DHT22;6868;52.544;13.416;2022-07-18T08:04:46;30.00;48.30
13596;DHT22;6868;52.544;13.416;2022-07-18T08:07:13;30.30;47.70
13596;DHT22;6868;52.544;13.416;2022-07-18T08:09:40;30.30;46.70
13596;DHT22;6868;52.544;13.416;2022-07-18T08:12:06;29.90;46.20
13596;DHT22;6868;52.544;13.416;2022-07-18T08:14:35;30.20;45.20
13596;DHT22;6868;52.544;13.416;2022-07-18T08:17:05;30.50;44.90
13596;DHT22;6868;52.544;13.416;2022-07-18T08:19:32;30.70;43.50
13596;DHT22;6868;52.544;13.416;2022-07-18T08:21:59;29.70;43.70
13596;DHT22;6868;52.544;13.416;2022-07-18T08:24:25;29.10;45.80
13596;DHT22;6868;52.544;13.416;2022-07-18T08:26:52;29.60;47.20
13596;DHT22;6868;52.544;13.416;2022-07-18T08:29:19;29.60;46.60
13596;DHT22;6868;52.544;13.416;2022-07-18T08:31:47;28.90;45.00
13596;DHT22;6868;52.544;13.416;2022-07-18T08:34:14;28.40;47.30
13596;DHT22;6868;52.544;13.416;2022-07-18T08:36:41;28.20;49.40
13596;DHT22;6868;52.544;13.416;2022-07-18T08:39:07;28.10;50.10
13596;DHT22;6868;52.544;13.416;2022-07-18T08:41:34;27.80;49.20
13596;DHT22;6868;52.544;13.416;2022-07-18T08:44:03;27.20;50.20
13596;DHT22;6868;52.544;13.416;2022-07-18T08:46:30;26.70;50.40
13596;DHT22;6868;52.544;13.416;2022-07-18T08:49:00;26.10;51.60
13596;DHT22;6868;52.544;13.416;2022-07-18T08:51:27;25.80;52.70
13596;DHT22;6868;52.544;13.416;2022-07-18T08:53:57;25.90;51.00
13596;DHT22;6868;52.544;13.416;2022-07-18T08:56:24;25.80;52.80
13596;DHT22;6868;52.544;13.416;2022-07-18T08:58:51;25.70;55.10
13596;DHT22;6868;52.544;13.416;2022-07-18T09:01:18;25.60;55.60
13596;DHT22;6868;52.544;13.416;2022-07-18T09:03:45;25.80;54.80
13596;DHT22;6868;52.544;13.416;2022-07-18T09:06:42;25.70;57.50
13596;DHT22;6868;52.544;13.416;2022-07-18T09:09:09;25.70;57.80
13596;DHT22;6868;52.544;13.416;2022-07-18T09:11:37;26.00;56.90
13596;DHT22;6868;52.544;13.416;2022-07-18T09:14:26;26.10;56.50
13596;DHT22;6868;52.544;13.416;2022-07-18T09:16:58;25.90;57.30
13596;DHT22;6868;52.544;13.416;2022-07-18T09:19:25;25.90;60.90
13596;DHT22;6868;52.544;13.416;2022-07-18T09:21:54;26.00;63.00
13596;DHT22;6868;52.544;13.416;2022-07-18T09:24:21;26.30;62.30
13596;DHT22;6868;52.544;13.416;2022-07-18T09:26:48;26.40;60.80
13596;DHT22;6868;52.544;13.416;2022-07-18T09:29:16;26.50;61.10
13596;DHT22;6868;52.544;13.416;2022-07-18T09:31:47;26.70;62.60
13596;DHT22;6868;52.544;13.416;2022-07-18T09:34:14;26.90;61.60
13596;DHT22;6868;52.544;13.416;2022-07-18T09:36:59;27.00;59.90
13596;DHT22;6868;52.544;13.416;2022-07-18T09:39:27;26.80;58.20
13596;DHT22;6868;52.544;13.416;2022-07-18T09:42:12;26.80;59.70
13596;DHT22;6868;52.544;13.416;2022-07-18T09:44:39;26.80;58.00
13596;DHT22;6868;52.544;13.416;2022-07-18T09:47:05;26.60;57.10
13596;DHT22;6868;52.544;13.416;2022-07-18T09:49:33;26.40;56.50
13596;DHT22;6868;52.544;13.416;2022-07-18T09:52:06;26.30;57.00
13596;DHT22;6868;52.544;13.416;2022-07-18T09:54:36;26.20;57.40
13596;DHT22;6868;52.544;13.416;2022-07-18T09:57:04;26.40;60.00
13596;DHT22;6868;52.544;13.416;2022-07-18T09:59:32;26.60;57.90
13596;DHT22;6868;52.544;13.416;2022-07-18T10:01:59;26.60;56.90
13596;DHT22;6868;52.544;13.416;2022-07-18T10:04:26;26.50;57.70
13596;DHT22;6868;52.544;13.416;2022-07-18T10:06:53;26.60;57.50
13596;DHT22;6868;52.544;13.416;2022-07-18T10:09:21;26.70;57.30
13596;DHT22;6868;52.544;13.416;2022-07-18T10:11:48;27.00;57.20
13596;DHT22;6868;52.544;13.416;2022-07-18T10:14:16;26.90;56.30
13596;DHT22;6868;52.544;13.416;2022-07-18T10:16:43;26.60;57.00
13596;DHT22;6868;52.544;13.416;2022-07-18T10:19:10;26.70;56.20
13596;DHT22;6868;52.544;13.416;2022-07-18T10:21:38;26.90;56.70
13596;DHT22;6868;52.544;13.416;2022-07-18T10:24:06;26.70;57.20
13596;DHT22;6868;52.544;13.416;2022-07-18T10:26:34;26.70;57.20
13596;DHT22;6868;52.544;13.416;2022-07-18T10:31:59;26.90;56.50
13596;DHT22;6868;52.544;13.416;2022-07-18T10:34:28;27.50;55.70
13596;DHT22;6868;52.544;13.416;2022-07-18T10:39:43;28.00;54.40
13596;DHT22;6868;52.544;13.416;2022-07-18T10:42:18;28.50;53.10
13596;DHT22;6868;52.544;13.416;2022-07-18T10:44:45;28.40;50.10
13596;DHT22;6868;52.544;13.416;2022-07-18T10:47:13;28.30;50.90
13596;DHT22;6868;52.544;13.416;2022-07-18T10:55:26;27.50;51.50
13596;DHT22;6868;52.544;13.416;2022-07-18T11:00:37;27.60;52.60
13596;DHT22;6868;52.544;13.416;2022-07-18T11:03:04;27.40;51.80
13596;DHT22;6868;52.544;13.416;2022-07-18T11:05:32;27.40;51.80
13596;DHT22;6868;52.544;13.416;2022-07-18T11:08:16;27.30;51.20
13596;DHT22;6868;52.544;13.416;2022-07-18T11:13:30;27.40;51.00
13596;DHT22;6868;52.544;13.416;2022-07-18T11:15:59;27.50;50.90
13596;DHT22;6868;52.544;13.416;2022-07-18T11:18:30;27.60;50.80
13596;DHT22;6868;52.544;13.416;2022-07-18T11:20:58;27.70;51.30
13596;DHT22;6868;52.544;13.416;2022-07-18T11:23:27;27.60;50.10
13596;DHT22;6868;52.544;13.416;2022-07-18T11:25:55;27.70;50.60
13596;DHT22;6868;52.544;13.416;2022-07-18T11:28:22;27.80;50.60
13596;DHT22;6868;52.544;13.416;2022-07-18T11:30:59;27.80;48.40
13596;DHT22;6868;52.544;13.416;2022-07-18T11:33:27;27.90;49.40
13596;DHT22;6868;52.544;13.416;2022-07-18T11:36:01;28.20;49.30
13596;DHT22;6868;52.544;13.416;2022-07-18T11:38:34;28.30;49.70
13596;DHT22;6868;52.544;13.416;2022-07-18T11:41:03;28.40;48.30
13596;DHT22;6868;52.544;13.416;2022-07-18T11:43:32;28.10;47.40
13596;DHT22;6868;52.544;13.416;2022-07-18T11:46:05;28.00;48.40
13596;DHT22;6868;52.544;13.416;2022-07-18T11:48:33;28.00;48.20
13596;DHT22;6868;52.544;13.416;2022-07-18T11:51:01;27.90;47.40
13596;DHT22;6868;52.544;13.416;2022-07-18T11:53:28;27.80;47.60
13596;DHT22;6868;52.544;13.416;2022-07-18T11:56:03;27.70;47.80
13596;DHT22;6868;52.544;13.416;2022-07-18T11:58:34;27.90;47.70
13596;DHT22;6868;52.544;13.416;2022-07-18T12:01:01;28.00;47.70
13596;DHT22;6868;52.544;13.416;2022-07-18T12:03:30;28.30;48.00
13596;DHT22;6868;52.544;13.416;2022-07-18T12:05:57;28.70;47.60
13596;DHT22;6868;52.544;13.416;2022-07-18T12:08:27;28.80;46.00
13596;DHT22;6868;52.544;13.416;2022-07-18T12:11:04;28.80;46.30
13596;DHT22;6868;52.544;13.416;2022-07-18T12:13:42;28.60;45.60
13596;DHT22;6868;52.544;13.416;2022-07-18T12:16:21;28.80;45.80
13596;DHT22;6868;52.544;13.416;2022-07-18T12:18:50;28.60;45.00
13596;DHT22;6868;52.544;13.416;2022-07-18T12:21:17;28.50;45.50
13596;DHT22;6868;52.544;13.416;2022-07-18T12:23:44;28.40;46.10
13596;DHT22;6868;52.544;13.416;2022-07-18T12:26:27;28.50;46.30
13596;DHT22;6868;52.544;13.416;2022-07-18T12:29:04;28.50;45.50
13596;DHT22;6868;52.544;13.416;2022-07-18T12:31:38;28.30;45.30
13596;DHT22;6868;52.544;13.416;2022-07-18T12:34:10;28.50;45.80
13596;DHT22;6868;52.544;13.416;2022-07-18T12:36:53;28.60;45.80
13596;DHT22;6868;52.544;13.416;2022-07-18T12:39:27;28.80;46.10
13596;DHT22;6868;52.544;13.416;2022-07-18T12:41:54;28.90;45.60
13596;DHT22;6868;52.544;13.416;2022-07-18T12:44:21;28.70;45.10
13596;DHT22;6868;52.544;13.416;2022-07-18T12:46:48;28.80;45.90
13596;DHT22;6868;52.544;13.416;2022-07-18T12:49:17;28.60;45.00
13596;DHT22;6868;52.544;13.416;2022-07-18T12:51:43;28.60;45.40
13596;DHT22;6868;52.544;13.416;2022-07-18T12:54:10;29.00;45.70
13596;DHT22;6868;52.544;13.416;2022-07-18T12:56:37;29.10;45.30
13596;DHT22;6868;52.544;13.416;2022-07-18T13:01:31;29.40;43.20
13596;DHT22;6868;52.544;13.416;2022-07-18T13:03:58;29.60;43.70
13596;DHT22;6868;52.544;13.416;2022-07-18T13:06:26;29.90;41.80
13596;DHT22;6868;52.544;13.416;2022-07-18T13:08:53;29.80;42.80
13596;DHT22;6868;52.544;13.416;2022-07-18T13:11:20;29.80;42.50
13596;DHT22;6868;52.544;13.416;2022-07-18T13:13:47;29.70;41.40
13596;DHT22;6868;52.544;13.416;2022-07-18T13:16:14;29.60;42.20
13596;DHT22;6868;52.544;13.416;2022-07-18T13:18:41;29.40;41.80
13596;DHT22;6868;52.544;13.416;2022-07-18T13:21:08;29.30;42.10
13596;DHT22;6868;52.544;13.416;2022-07-18T13:23:36;29.10;42.40
13596;DHT22;6868;52.544;13.416;2022-07-18T13:26:06;29.20;43.40
13596;DHT22;6868;52.544;13.416;2022-07-18T13:28:33;29.30;43.20
13596;DHT22;6868;52.544;13.416;2022-07-18T13:31:00;29.40;41.90
13596;DHT22;6868;52.544;13.416;2022-07-18T13:33:27;29.20;41.40
13596;DHT22;6868;52.544;13.416;2022-07-18T13:35:53;29.00;41.90
13596;DHT22;6868;52.544;13.416;2022-07-18T13:38:20;28.80;41.60
13596;DHT22;6868;52.544;13.416;2022-07-18T13:40:48;28.80;41.40
13596;DHT22;6868;52.544;13.416;2022-07-18T13:43:17;28.70;41.70
13596;DHT22;6868;52.544;13.416;2022-07-18T13:45:44;28.60;41.90
13596;DHT22;6868;52.544;13.416;2022-07-18T13:48:11;28.50;41.50
13596;DHT22;6868;52.544;13.416;2022-07-18T13:50:38;28.40;42.20
13596;DHT22;6868;52.544;13.416;2022-07-18T13:53:06;28.40;41.30
13596;DHT22;6868;52.544;13.416;2022-07-18T13:55:33;28.50;42.70
13596;DHT22;6868;52.544;13.416;2022-07-18T13:58:02;28.70;42.30
13596;DHT22;6868;52.544;13.416;2022-07-18T14:00:29;29.00;41.50
13596;DHT22;6868;52.544;13.416;2022-07-18T14:02:55;29.20;40.90
13596;DHT22;6868;52.544;13.416;2022-07-18T14:07:50;29.50;39.60
13596;DHT22;6868;52.544;13.416;2022-07-18T14:12:44;29.80;39.70
13596;DHT22;6868;52.544;13.416;2022-07-18T14:15:15;29.60;40.30
13596;DHT22;6868;52.544;13.416;2022-07-18T14:17:42;29.70;39.40
13596;DHT22;6868;52.544;13.416;2022-07-18T14:20:09;29.80;39.50
13596;DHT22;6868;52.544;13.416;2022-07-18T14:22:36;29.70;39.30
13596;DHT22;6868;52.544;13.416;2022-07-18T14:25:05;29.70;38.30
13596;DHT22;6868;52.544;13.416;2022-07-18T14:27:33;29.80;38.50
13596;DHT22;6868;52.544;13.416;2022-07-18T14:30:00;29.80;38.70
13596;DHT22;6868;52.544;13.416;2022-07-18T14:32:28;29.80;37.80
13596;DHT22;6868;52.544;13.416;2022-07-18T14:34:55;29.60;39.10
13596;DHT22;6868;52.544;13.416;2022-07-18T14:37:23;29.80;39.60
13596;DHT22;6868;52.544;13.416;2022-07-18T14:39:50;29.70;39.80
13596;DHT22;6868;52.544;13.416;2022-07-18T14:42:16;29.80;40.80
13596;DHT22;6868;52.544;13.416;2022-07-18T14:44:43;29.90;39.60
13596;DHT22;6868;52.544;13.416;2022-07-18T14:47:10;30.00;39.60
13596;DHT22;6868;52.544;13.416;2022-07-18T14:49:38;30.20;38.90
13596;DHT22;6868;52.544;13.416;2022-07-18T14:54:32;30.20;37.60
13596;DHT22;6868;52.544;13.416;2022-07-18T14:57:00;29.70;36.80
13596;DHT22;6868;52.544;13.416;2022-07-18T14:59:28;29.60;37.70
13596;DHT22;6868;52.544;13.416;2022-07-18T15:01:55;29.40;37.70
13596;DHT22;6868;52.544;13.416;2022-07-18T15:04:24;29.30;38.30
13596;DHT22;6868;52.544;13.416;2022-07-18T15:06:54;29.10;39.00
13596;DHT22;6868;52.544;13.416;2022-07-18T15:09:21;29.10;39.70
13596;DHT22;6868;52.544;13.416;2022-07-18T15:11:48;29.00;38.70
13596;DHT22;6868;52.544;13.416;2022-07-18T15:14:14;29.00;39.10
13596;DHT22;6868;52.544;13.416;2022-07-18T15:16:41;28.90;39.70
13596;DHT22;6868;52.544;13.416;2022-07-18T15:19:08;29.00;39.80
13596;DHT22;6868;52.544;13.416;2022-07-18T15:21:35;29.10;39.70
13596;DHT22;6868;52.544;13.416;2022-07-18T15:24:03;28.90;39.50
13596;DHT22;6868;52.544;13.416;2022-07-18T15:26:30;28.80;39.50
13596;DHT22;6868;52.544;13.416;2022-07-18T15:28:57;28.90;40.80
13596;DHT22;6868;52.544;13.416;2022-07-18T15:31:23;29.00;40.80
13596;DHT22;6868;52.544;13.416;2022-07-18T15:33:50;29.00;40.20
13596;DHT22;6868;52.544;13.416;2022-07-18T15:36:17;29.20;41.00
13596;DHT22;6868;52.544;13.416;2022-07-18T15:38:44;29.40;40.30
13596;DHT22;6868;52.544;13.416;2022-07-18T15:41:12;29.30;38.80
13596;DHT22;6868;52.544;13.416;2022-07-18T15:43:44;29.40;38.90
13596;DHT22;6868;52.544;13.416;2022-07-18T15:46:11;29.30;39.30
13596;DHT22;6868;52.544;13.416;2022-07-18T15:48:42;29.40;39.20
13596;DHT22;6868;52.544;13.416;2022-07-18T15:51:09;29.40;40.00
13596;DHT22;6868;52.544;13.416;2022-07-18T15:53:36;29.50;39.20
13596;DHT22;6868;52.544;13.416;2022-07-18T15:56:04;29.50;38.20
13596;DHT22;6868;52.544;13.416;2022-07-18T15:58:32;29.30;38.00
13596;DHT22;6868;52.544;13.416;2022-07-18T16:00:59;29.30;38.40
13596;DHT22;6868;52.544;13.416;2022-07-18T16:03:26;29.40;38.80
13596;DHT22;6868;52.544;13.416;2022-07-18T16:05:53;29.50;39.40
13596;DHT22;6868;52.544;13.416;2022-07-18T16:08:22;29.70;38.70
13596;DHT22;6868;52.544;13.416;2022-07-18T16:10:49;29.70;38.80
13596;DHT22;6868;52.544;13.416;2022-07-18T16:13:16;29.80;37.30
13596;DHT22;6868;52.544;13.416;2022-07-18T16:18:12;29.80;36.50
13596;DHT22;6868;52.544;13.416;2022-07-18T16:20:41;29.30;36.90